Hauptseite
METAR-TAF:

METAR-TAF

Flughäfen :

Flughafen Aurillac

Aurillac, Frankreich

Breite: 44-53N, Länge: 002-25E, Höhe: 639 m

Beobachtung

Neuester Wetterbericht von vor 47 Minuten, um 12:00 UTC
Wind 3 kt aus unterschiedlichen Richtungen
Temperatur 18°C
Luftfeuchtigkeit 34%
Luftdruck 1024 hPa
Sichtweite 10 km oder mehr
keine Wolken unter 1500 m und keine Kumulonimbus oder Gewitterwolken

METAR: LFLW 221200Z AUTO VRB03KT CAVOK 18/02 Q1024 NOSIG

Zeit: 14:47 (12:47 UTC)

Prognose

Neuester Wetterbericht von vor 1 Stunde und 47 Minuten, um 11:00 UTC
Gültige Prognose vom 22 um 12 UTC bis 22 um 21 UTC
Wind 3 kt aus unterschiedlichen Richtungen
Sichtweite 10 km oder mehr
keine Wolken unter 1500 m und keine Kumulonimbus oder Gewitterwolken
Übergehend zu
vom 22 um 12 UTC bis 22 um 15 UTC
Wind 7 kt aus Nordost

TAF: LFLW 221100Z 2212/2221 VRB03KT CAVOK BECMG 2212/2215 04007KT

Wetterbeobachtungen und Prognosen von mehr als 4000 Flughäfen (METAR und TAF Bericht).

Die verfügbaren Stationen werden durch gelbe und rote Markierungen auf der Karte dargestellt.

Führen Sie die Maus auf sie, um den Namen der Station zu sehen.

Darauf klicken, um die Beobachtung von Wetterbeobachtungen und Prognosen zu sehen.

Um die Karte zu ändern : klicken Sie auf den grünen Tasten mit einem schwarzen Kreuz Zum Vergrößern, auf den grünen Button mit einem Gedankenstrich zu verkleinern, oder auf die grünen Pfeile für benachbarte Karten.


METAR-TAF: